sensor_id;sensor_type;location;lat;lon;timestamp;P1;durP1;ratioP1;P2;durP2;ratioP2
37641;SDS011;23486;51.956;5.888;2022-12-18T00:00:58;74.55;;;26.13;;
37641;SDS011;23486;51.956;5.888;2022-12-18T00:03:24;71.15;;;28.75;;
37641;SDS011;23486;51.956;5.888;2022-12-18T00:05:51;71.85;;;28.60;;
37641;SDS011;23486;51.956;5.888;2022-12-18T00:08:17;65.25;;;26.80;;
37641;SDS011;23486;51.956;5.888;2022-12-18T00:10:44;68.68;;;26.27;;
37641;SDS011;23486;51.956;5.888;2022-12-18T00:13:10;68.35;;;27.60;;
37641;SDS011;23486;51.956;5.888;2022-12-18T00:15:39;61.42;;;25.15;;
37641;SDS011;23486;51.956;5.888;2022-12-18T00:18:05;61.83;;;26.83;;
37641;SDS011;23486;51.956;5.888;2022-12-18T00:20:31;67.32;;;26.70;;
37641;SDS011;23486;51.956;5.888;2022-12-18T00:23:00;65.05;;;27.65;;
37641;SDS011;23486;51.956;5.888;2022-12-18T00:25:26;71.28;;;26.92;;
37641;SDS011;23486;51.956;5.888;2022-12-18T00:27:51;66.38;;;27.13;;
37641;SDS011;23486;51.956;5.888;2022-12-18T00:30:17;57.58;;;25.02;;
37641;SDS011;23486;51.956;5.888;2022-12-18T00:32:43;66.28;;;26.85;;
37641;SDS011;23486;51.956;5.888;2022-12-18T00:35:08;61.65;;;26.10;;
37641;SDS011;23486;51.956;5.888;2022-12-18T00:37:34;55.70;;;25.15;;
37641;SDS011;23486;51.956;5.888;2022-12-18T00:40:00;62.20;;;25.38;;
37641;SDS011;23486;51.956;5.888;2022-12-18T00:42:25;60.30;;;26.67;;
37641;SDS011;23486;51.956;5.888;2022-12-18T00:47:35;61.70;;;25.20;;
37641;SDS011;23486;51.956;5.888;2022-12-18T00:50:00;63.22;;;25.77;;
37641;SDS011;23486;51.956;5.888;2022-12-18T00:52:26;57.60;;;24.98;;
37641;SDS011;23486;51.956;5.888;2022-12-18T00:54:54;56.47;;;25.67;;
37641;SDS011;23486;51.956;5.888;2022-12-18T00:57:20;59.25;;;24.67;;
37641;SDS011;23486;51.956;5.888;2022-12-18T00:59:45;64.38;;;25.92;;
37641;SDS011;23486;51.956;5.888;2022-12-18T01:02:11;64.75;;;26.73;;
37641;SDS011;23486;51.956;5.888;2022-12-18T01:04:39;60.50;;;25.73;;
37641;SDS011;23486;51.956;5.888;2022-12-18T01:07:05;60.22;;;27.63;;
37641;SDS011;23486;51.956;5.888;2022-12-18T01:09:30;60.30;;;24.98;;
37641;SDS011;23486;51.956;5.888;2022-12-18T01:11:56;51.85;;;23.73;;
37641;SDS011;23486;51.956;5.888;2022-12-18T01:14:22;58.17;;;25.65;;
37641;SDS011;23486;51.956;5.888;2022-12-18T01:16:47;56.47;;;24.08;;
37641;SDS011;23486;51.956;5.888;2022-12-18T01:19:13;57.72;;;25.75;;
37641;SDS011;23486;51.956;5.888;2022-12-18T01:21:38;57.95;;;24.25;;
37641;SDS011;23486;51.956;5.888;2022-12-18T01:24:04;56.08;;;24.20;;
37641;SDS011;23486;51.956;5.888;2022-12-18T01:26:31;56.35;;;23.70;;
37641;SDS011;23486;51.956;5.888;2022-12-18T01:28:56;50.20;;;22.75;;
37641;SDS011;23486;51.956;5.888;2022-12-18T01:31:26;54.55;;;23.25;;
37641;SDS011;23486;51.956;5.888;2022-12-18T01:33:57;55.83;;;23.50;;
37641;SDS011;23486;51.956;5.888;2022-12-18T01:36:26;54.70;;;23.45;;
37641;SDS011;23486;51.956;5.888;2022-12-18T01:38:54;53.83;;;24.10;;
37641;SDS011;23486;51.956;5.888;2022-12-18T01:41:22;51.78;;;22.67;;
37641;SDS011;23486;51.956;5.888;2022-12-18T01:47:15;53.70;;;23.90;;
37641;SDS011;23486;51.956;5.888;2022-12-18T01:49:45;49.55;;;23.00;;
37641;SDS011;23486;51.956;5.888;2022-12-18T01:52:11;52.78;;;24.00;;
37641;SDS011;23486;51.956;5.888;2022-12-18T01:54:36;52.33;;;23.35;;
37641;SDS011;23486;51.956;5.888;2022-12-18T01:57:02;49.65;;;23.23;;
37641;SDS011;23486;51.956;5.888;2022-12-18T01:59:28;52.42;;;23.35;;
37641;SDS011;23486;51.956;5.888;2022-12-18T02:01:56;50.88;;;22.90;;
37641;SDS011;23486;51.956;5.888;2022-12-18T02:04:31;49.15;;;21.80;;
37641;SDS011;23486;51.956;5.888;2022-12-18T02:07:02;52.85;;;22.02;;
37641;SDS011;23486;51.956;5.888;2022-12-18T02:09:34;50.42;;;21.00;;
37641;SDS011;23486;51.956;5.888;2022-12-18T02:28:11;53.00;;;23.85;;
37641;SDS011;23486;51.956;5.888;2022-12-18T02:30:40;51.42;;;22.55;;
37641;SDS011;23486;51.956;5.888;2022-12-18T02:33:07;49.65;;;23.30;;
37641;SDS011;23486;51.956;5.888;2022-12-18T02:35:36;51.85;;;21.88;;
37641;SDS011;23486;51.956;5.888;2022-12-18T02:38:03;46.83;;;20.88;;
37641;SDS011;23486;51.956;5.888;2022-12-18T02:40:29;45.08;;;21.15;;
37641;SDS011;23486;51.956;5.888;2022-12-18T02:43:01;40.55;;;19.02;;
37641;SDS011;23486;51.956;5.888;2022-12-18T02:45:35;42.40;;;19.27;;
37641;SDS011;23486;51.956;5.888;2022-12-18T02:48:00;47.65;;;21.02;;
37641;SDS011;23486;51.956;5.888;2022-12-18T02:50:28;44.90;;;20.52;;
37641;SDS011;23486;51.956;5.888;2022-12-18T02:53:13;47.58;;;21.75;;
37641;SDS011;23486;51.956;5.888;2022-12-18T03:01:21;47.90;;;21.30;;
37641;SDS011;23486;51.956;5.888;2022-12-18T03:06:48;36.85;;;17.85;;
37641;SDS011;23486;51.956;5.888;2022-12-18T03:09:20;44.63;;;18.85;;
37641;SDS011;23486;51.956;5.888;2022-12-18T03:11:52;42.85;;;18.70;;
37641;SDS011;23486;51.956;5.888;2022-12-18T03:14:39;41.30;;;19.20;;
37641;SDS011;23486;51.956;5.888;2022-12-18T03:17:09;44.15;;;19.90;;
37641;SDS011;23486;51.956;5.888;2022-12-18T03:19:39;48.03;;;20.27;;
37641;SDS011;23486;51.956;5.888;2022-12-18T03:22:06;38.50;;;17.70;;
37641;SDS011;23486;51.956;5.888;2022-12-18T03:24:35;41.22;;;18.33;;
37641;SDS011;23486;51.956;5.888;2022-12-18T03:27:05;42.95;;;19.95;;
37641;SDS011;23486;51.956;5.888;2022-12-18T03:29:36;42.33;;;18.02;;
37641;SDS011;23486;51.956;5.888;2022-12-18T03:32:16;37.42;;;17.73;;
37641;SDS011;23486;51.956;5.888;2022-12-18T03:34:49;41.53;;;19.67;;
37641;SDS011;23486;51.956;5.888;2022-12-18T03:37:20;37.35;;;16.17;;
37641;SDS011;23486;51.956;5.888;2022-12-18T03:39:46;44.38;;;20.25;;
37641;SDS011;23486;51.956;5.888;2022-12-18T03:42:32;42.13;;;19.20;;
37641;SDS011;23486;51.956;5.888;2022-12-18T03:48:15;41.53;;;18.45;;
37641;SDS011;23486;51.956;5.888;2022-12-18T03:53:23;33.95;;;16.30;;
37641;SDS011;23486;51.956;5.888;2022-12-18T03:55:57;31.90;;;17.90;;
37641;SDS011;23486;51.956;5.888;2022-12-18T03:58:25;39.22;;;18.52;;
37641;SDS011;23486;51.956;5.888;2022-12-18T04:00:55;38.25;;;16.23;;
37641;SDS011;23486;51.956;5.888;2022-12-18T04:03:24;34.03;;;16.23;;
37641;SDS011;23486;51.956;5.888;2022-12-18T04:05:54;34.75;;;15.95;;
37641;SDS011;23486;51.956;5.888;2022-12-18T04:08:21;36.83;;;16.27;;
37641;SDS011;23486;51.956;5.888;2022-12-18T04:10:51;36.88;;;15.98;;
37641;SDS011;23486;51.956;5.888;2022-12-18T04:13:31;31.08;;;14.90;;
37641;SDS011;23486;51.956;5.888;2022-12-18T04:16:00;31.93;;;16.07;;
37641;SDS011;23486;51.956;5.888;2022-12-18T04:18:26;34.13;;;16.67;;
37641;SDS011;23486;51.956;5.888;2022-12-18T04:20:51;36.22;;;17.67;;
37641;SDS011;23486;51.956;5.888;2022-12-18T04:23:17;38.13;;;16.90;;
37641;SDS011;23486;51.956;5.888;2022-12-18T04:25:43;35.28;;;16.42;;
37641;SDS011;23486;51.956;5.888;2022-12-18T04:28:08;32.15;;;15.35;;
37641;SDS011;23486;51.956;5.888;2022-12-18T04:30:34;28.90;;;13.25;;
37641;SDS011;23486;51.956;5.888;2022-12-18T04:33:02;33.63;;;15.02;;
37641;SDS011;23486;51.956;5.888;2022-12-18T04:35:28;28.25;;;14.45;;
37641;SDS011;23486;51.956;5.888;2022-12-18T04:37:53;32.10;;;14.13;;
37641;SDS011;23486;51.956;5.888;2022-12-18T04:40:19;30.20;;;15.07;;
37641;SDS011;23486;51.956;5.888;2022-12-18T04:42:45;29.65;;;14.68;;
37641;SDS011;23486;51.956;5.888;2022-12-18T04:45:10;34.80;;;16.15;;
37641;SDS011;23486;51.956;5.888;2022-12-18T04:47:36;30.70;;;14.90;;
37641;SDS011;23486;51.956;5.888;2022-12-18T04:50:01;33.33;;;14.35;;
37641;SDS011;23486;51.956;5.888;2022-12-18T04:52:27;31.20;;;13.50;;
37641;SDS011;23486;51.956;5.888;2022-12-18T04:54:53;30.42;;;14.45;;
37641;SDS011;23486;51.956;5.888;2022-12-18T04:57:18;32.40;;;15.88;;
37641;SDS011;23486;51.956;5.888;2022-12-18T04:59:44;27.35;;;14.20;;
37641;SDS011;23486;51.956;5.888;2022-12-18T05:02:10;28.00;;;13.70;;
37641;SDS011;23486;51.956;5.888;2022-12-18T05:04:38;32.08;;;15.73;;
37641;SDS011;23486;51.956;5.888;2022-12-18T05:07:04;32.92;;;14.10;;
37641;SDS011;23486;51.956;5.888;2022-12-18T05:09:32;28.45;;;13.98;;
37641;SDS011;23486;51.956;5.888;2022-12-18T05:11:58;27.10;;;13.20;;
37641;SDS011;23486;51.956;5.888;2022-12-18T05:14:23;32.53;;;13.82;;
37641;SDS011;23486;51.956;5.888;2022-12-18T05:16:49;24.02;;;12.10;;
37641;SDS011;23486;51.956;5.888;2022-12-18T05:19:14;27.00;;;12.40;;
37641;SDS011;23486;51.956;5.888;2022-12-18T05:21:40;26.52;;;11.88;;
37641;SDS011;23486;51.956;5.888;2022-12-18T05:24:06;26.17;;;12.52;;
37641;SDS011;23486;51.956;5.888;2022-12-18T05:26:31;28.75;;;12.63;;
37641;SDS011;23486;51.956;5.888;2022-12-18T05:28:57;28.48;;;11.68;;
37641;SDS011;23486;51.956;5.888;2022-12-18T05:31:22;28.95;;;13.23;;
37641;SDS011;23486;51.956;5.888;2022-12-18T05:33:48;24.73;;;11.57;;
37641;SDS011;23486;51.956;5.888;2022-12-18T05:36:13;31.27;;;13.05;;
37641;SDS011;23486;51.956;5.888;2022-12-18T05:38:40;27.25;;;11.85;;
37641;SDS011;23486;51.956;5.888;2022-12-18T05:41:06;27.85;;;12.40;;
37641;SDS011;23486;51.956;5.888;2022-12-18T05:43:33;23.40;;;11.65;;
37641;SDS011;23486;51.956;5.888;2022-12-18T05:46:08;25.25;;;11.35;;
37641;SDS011;23486;51.956;5.888;2022-12-18T05:48:36;27.35;;;12.52;;
37641;SDS011;23486;51.956;5.888;2022-12-18T05:51:03;24.70;;;12.50;;
37641;SDS011;23486;51.956;5.888;2022-12-18T05:53:30;23.10;;;11.38;;
37641;SDS011;23486;51.956;5.888;2022-12-18T05:55:59;25.67;;;11.73;;
37641;SDS011;23486;51.956;5.888;2022-12-18T05:58:29;29.67;;;13.63;;
37641;SDS011;23486;51.956;5.888;2022-12-18T06:00:56;21.98;;;11.85;;
37641;SDS011;23486;51.956;5.888;2022-12-18T06:03:24;25.60;;;11.80;;
37641;SDS011;23486;51.956;5.888;2022-12-18T06:05:50;27.27;;;12.68;;
37641;SDS011;23486;51.956;5.888;2022-12-18T06:08:16;31.83;;;13.45;;
37641;SDS011;23486;51.956;5.888;2022-12-18T06:10:41;23.60;;;12.50;;
37641;SDS011;23486;51.956;5.888;2022-12-18T06:13:07;26.20;;;11.57;;
37641;SDS011;23486;51.956;5.888;2022-12-18T06:15:35;27.42;;;13.13;;
37641;SDS011;23486;51.956;5.888;2022-12-18T06:18:02;22.60;;;12.27;;
37641;SDS011;23486;51.956;5.888;2022-12-18T06:20:27;28.98;;;12.43;;
37641;SDS011;23486;51.956;5.888;2022-12-18T06:22:56;29.65;;;12.85;;
37641;SDS011;23486;51.956;5.888;2022-12-18T06:25:21;26.70;;;13.23;;
37641;SDS011;23486;51.956;5.888;2022-12-18T06:27:47;21.27;;;11.13;;
37641;SDS011;23486;51.956;5.888;2022-12-18T06:30:16;30.10;;;14.35;;
37641;SDS011;23486;51.956;5.888;2022-12-18T06:32:41;28.75;;;14.27;;
37641;SDS011;23486;51.956;5.888;2022-12-18T06:35:07;24.85;;;13.13;;
37641;SDS011;23486;51.956;5.888;2022-12-18T06:37:36;26.30;;;12.60;;
37641;SDS011;23486;51.956;5.888;2022-12-18T06:40:01;25.95;;;12.85;;
37641;SDS011;23486;51.956;5.888;2022-12-18T06:42:28;27.35;;;13.50;;
37641;SDS011;23486;51.956;5.888;2022-12-18T06:44:56;22.70;;;11.88;;
37641;SDS011;23486;51.956;5.888;2022-12-18T06:47:22;24.30;;;11.95;;
37641;SDS011;23486;51.956;5.888;2022-12-18T06:49:48;25.10;;;12.45;;
37641;SDS011;23486;51.956;5.888;2022-12-18T06:52:13;24.73;;;12.75;;
37641;SDS011;23486;51.956;5.888;2022-12-18T06:54:41;23.65;;;12.23;;
37641;SDS011;23486;51.956;5.888;2022-12-18T06:57:07;23.55;;;11.05;;
37641;SDS011;23486;51.956;5.888;2022-12-18T06:59:33;31.38;;;13.25;;
37641;SDS011;23486;51.956;5.888;2022-12-18T07:01:58;30.35;;;14.82;;
37641;SDS011;23486;51.956;5.888;2022-12-18T07:04:30;24.88;;;13.15;;
37641;SDS011;23486;51.956;5.888;2022-12-18T07:06:56;30.13;;;15.27;;
37641;SDS011;23486;51.956;5.888;2022-12-18T07:09:22;25.65;;;13.55;;
37641;SDS011;23486;51.956;5.888;2022-12-18T07:11:51;26.00;;;12.43;;
37641;SDS011;23486;51.956;5.888;2022-12-18T07:14:16;20.75;;;10.32;;
37641;SDS011;23486;51.956;5.888;2022-12-18T07:16:42;25.35;;;12.45;;
37641;SDS011;23486;51.956;5.888;2022-12-18T07:19:07;23.60;;;12.95;;
37641;SDS011;23486;51.956;5.888;2022-12-18T07:21:33;26.02;;;12.80;;
37641;SDS011;23486;51.956;5.888;2022-12-18T07:23:59;26.42;;;12.95;;
37641;SDS011;23486;51.956;5.888;2022-12-18T07:26:24;21.38;;;11.82;;
37641;SDS011;23486;51.956;5.888;2022-12-18T07:28:54;22.88;;;11.85;;
37641;SDS011;23486;51.956;5.888;2022-12-18T07:31:20;23.63;;;10.95;;
37641;SDS011;23486;51.956;5.888;2022-12-18T07:33:46;23.80;;;12.52;;
37641;SDS011;23486;51.956;5.888;2022-12-18T07:36:12;24.17;;;11.75;;
37641;SDS011;23486;51.956;5.888;2022-12-18T07:38:38;24.77;;;12.27;;
37641;SDS011;23486;51.956;5.888;2022-12-18T07:41:08;22.30;;;11.63;;
37641;SDS011;23486;51.956;5.888;2022-12-18T07:43:37;24.75;;;12.20;;
37641;SDS011;23486;51.956;5.888;2022-12-18T07:46:04;21.13;;;10.88;;
37641;SDS011;23486;51.956;5.888;2022-12-18T07:48:30;19.27;;;10.43;;
37641;SDS011;23486;51.956;5.888;2022-12-18T07:51:06;25.55;;;11.80;;
37641;SDS011;23486;51.956;5.888;2022-12-18T07:53:32;21.88;;;11.65;;
37641;SDS011;23486;51.956;5.888;2022-12-18T07:55:59;24.73;;;11.57;;
37641;SDS011;23486;51.956;5.888;2022-12-18T07:58:27;24.48;;;11.55;;
37641;SDS011;23486;51.956;5.888;2022-12-18T08:00:53;26.25;;;12.27;;
37641;SDS011;23486;51.956;5.888;2022-12-18T08:03:19;23.13;;;11.20;;
37641;SDS011;23486;51.956;5.888;2022-12-18T08:05:45;26.17;;;11.48;;
37641;SDS011;23486;51.956;5.888;2022-12-18T08:08:10;24.27;;;11.68;;
37641;SDS011;23486;51.956;5.888;2022-12-18T08:10:37;24.60;;;12.90;;
37641;SDS011;23486;51.956;5.888;2022-12-18T08:13:03;24.23;;;11.82;;
37641;SDS011;23486;51.956;5.888;2022-12-18T08:15:31;21.35;;;10.73;;
37641;SDS011;23486;51.956;5.888;2022-12-18T08:17:57;21.77;;;10.68;;
37641;SDS011;23486;51.956;5.888;2022-12-18T08:20:22;21.05;;;10.02;;
37641;SDS011;23486;51.956;5.888;2022-12-18T08:22:48;27.90;;;12.60;;
37641;SDS011;23486;51.956;5.888;2022-12-18T08:25:13;19.05;;;10.52;;
37641;SDS011;23486;51.956;5.888;2022-12-18T08:27:39;19.13;;;9.63;;
37641;SDS011;23486;51.956;5.888;2022-12-18T08:30:05;26.55;;;10.85;;
37641;SDS011;23486;51.956;5.888;2022-12-18T08:32:31;20.55;;;10.52;;
37641;SDS011;23486;51.956;5.888;2022-12-18T08:34:58;18.42;;;9.88;;
37641;SDS011;23486;51.956;5.888;2022-12-18T08:37:23;22.67;;;11.25;;
37641;SDS011;23486;51.956;5.888;2022-12-18T08:39:49;20.88;;;11.23;;
37641;SDS011;23486;51.956;5.888;2022-12-18T08:42:15;19.83;;;10.88;;
37641;SDS011;23486;51.956;5.888;2022-12-18T08:47:24;18.85;;;9.57;;
37641;SDS011;23486;51.956;5.888;2022-12-18T08:49:55;19.67;;;9.65;;
37641;SDS011;23486;51.956;5.888;2022-12-18T08:52:21;20.55;;;11.30;;
37641;SDS011;23486;51.956;5.888;2022-12-18T08:54:46;22.90;;;10.30;;
37641;SDS011;23486;51.956;5.888;2022-12-18T08:57:15;24.63;;;11.93;;
37641;SDS011;23486;51.956;5.888;2022-12-18T08:59:41;19.05;;;9.48;;
37641;SDS011;23486;51.956;5.888;2022-12-18T09:02:07;19.77;;;9.57;;
37641;SDS011;23486;51.956;5.888;2022-12-18T09:04:35;18.08;;;8.77;;
37641;SDS011;23486;51.956;5.888;2022-12-18T09:07:03;18.83;;;9.38;;
37641;SDS011;23486;51.956;5.888;2022-12-18T09:09:29;19.90;;;9.27;;
37641;SDS011;23486;51.956;5.888;2022-12-18T09:11:54;19.67;;;9.30;;
37641;SDS011;23486;51.956;5.888;2022-12-18T09:14:20;17.80;;;9.57;;
37641;SDS011;23486;51.956;5.888;2022-12-18T09:16:45;18.38;;;7.93;;
37641;SDS011;23486;51.956;5.888;2022-12-18T09:19:11;18.95;;;8.63;;
37641;SDS011;23486;51.956;5.888;2022-12-18T09:21:36;19.08;;;9.60;;
37641;SDS011;23486;51.956;5.888;2022-12-18T09:24:08;15.80;;;7.45;;
37641;SDS011;23486;51.956;5.888;2022-12-18T09:26:40;19.75;;;8.48;;
37641;SDS011;23486;51.956;5.888;2022-12-18T09:29:06;20.42;;;10.40;;
37641;SDS011;23486;51.956;5.888;2022-12-18T09:31:32;20.75;;;8.73;;
37641;SDS011;23486;51.956;5.888;2022-12-18T09:33:58;18.73;;;8.65;;
37641;SDS011;23486;51.956;5.888;2022-12-18T09:36:23;15.68;;;9.02;;
37641;SDS011;23486;51.956;5.888;2022-12-18T09:38:49;17.73;;;8.43;;
37641;SDS011;23486;51.956;5.888;2022-12-18T09:41:37;21.30;;;8.32;;
37641;SDS011;23486;51.956;5.888;2022-12-18T09:49:38;16.73;;;8.93;;
37641;SDS011;23486;51.956;5.888;2022-12-18T09:54:59;17.58;;;9.10;;
37641;SDS011;23486;51.956;5.888;2022-12-18T09:57:40;16.95;;;7.70;;
37641;SDS011;23486;51.956;5.888;2022-12-18T10:02:45;21.23;;;9.77;;
37641;SDS011;23486;51.956;5.888;2022-12-18T10:05:12;16.73;;;8.57;;
37641;SDS011;23486;51.956;5.888;2022-12-18T10:07:46;18.90;;;9.77;;
37641;SDS011;23486;51.956;5.888;2022-12-18T10:10:22;18.02;;;8.70;;
37641;SDS011;23486;51.956;5.888;2022-12-18T10:12:57;16.88;;;8.77;;
37641;SDS011;23486;51.956;5.888;2022-12-18T10:15:39;17.25;;;9.18;;
37641;SDS011;23486;51.956;5.888;2022-12-18T10:21:04;15.73;;;9.07;;
37641;SDS011;23486;51.956;5.888;2022-12-18T10:23:46;14.60;;;7.85;;
37641;SDS011;23486;51.956;5.888;2022-12-18T10:26:22;18.27;;;9.95;;
37641;SDS011;23486;51.956;5.888;2022-12-18T10:28:49;19.20;;;9.68;;
37641;SDS011;23486;51.956;5.888;2022-12-18T10:31:17;19.50;;;10.10;;
37641;SDS011;23486;51.956;5.888;2022-12-18T10:33:47;21.63;;;10.10;;
37641;SDS011;23486;51.956;5.888;2022-12-18T10:36:13;19.63;;;10.25;;
37641;SDS011;23486;51.956;5.888;2022-12-18T10:38:39;20.00;;;9.65;;
37641;SDS011;23486;51.956;5.888;2022-12-18T10:41:26;18.58;;;9.45;;
37641;SDS011;23486;51.956;5.888;2022-12-18T10:46:54;14.25;;;7.25;;
37641;SDS011;23486;51.956;5.888;2022-12-18T10:49:29;20.02;;;10.32;;
37641;SDS011;23486;51.956;5.888;2022-12-18T10:52:12;20.23;;;10.07;;
37641;SDS011;23486;51.956;5.888;2022-12-18T10:54:49;15.23;;;7.78;;
37641;SDS011;23486;51.956;5.888;2022-12-18T10:57:35;18.17;;;8.65;;
37641;SDS011;23486;51.956;5.888;2022-12-18T11:00:23;17.15;;;8.90;;
37641;SDS011;23486;51.956;5.888;2022-12-18T11:02:49;15.60;;;7.60;;
37641;SDS011;23486;51.956;5.888;2022-12-18T11:05:30;19.08;;;8.73;;
37641;SDS011;23486;51.956;5.888;2022-12-18T11:07:59;18.75;;;9.27;;
37641;SDS011;23486;51.956;5.888;2022-12-18T11:10:44;14.00;;;7.88;;
37641;SDS011;23486;51.956;5.888;2022-12-18T11:13:21;17.23;;;7.80;;
37641;SDS011;23486;51.956;5.888;2022-12-18T11:15:51;21.08;;;10.38;;
37641;SDS011;23486;51.956;5.888;2022-12-18T11:20:51;20.55;;;10.35;;
37641;SDS011;23486;51.956;5.888;2022-12-18T11:23:25;17.35;;;8.10;;
37641;SDS011;23486;51.956;5.888;2022-12-18T11:25:55;16.60;;;9.38;;
37641;SDS011;23486;51.956;5.888;2022-12-18T11:28:36;22.95;;;10.98;;
37641;SDS011;23486;51.956;5.888;2022-12-18T11:36:21;19.33;;;9.43;;
37641;SDS011;23486;51.956;5.888;2022-12-18T11:38:47;21.73;;;10.63;;
37641;SDS011;23486;51.956;5.888;2022-12-18T11:44:08;19.20;;;9.18;;
37641;SDS011;23486;51.956;5.888;2022-12-18T11:46:39;22.20;;;10.50;;
37641;SDS011;23486;51.956;5.888;2022-12-18T11:49:14;21.83;;;9.82;;
37641;SDS011;23486;51.956;5.888;2022-12-18T11:52:06;19.25;;;9.70;;
37641;SDS011;23486;51.956;5.888;2022-12-18T11:55:15;15.23;;;7.55;;
37641;SDS011;23486;51.956;5.888;2022-12-18T11:57:44;15.52;;;8.57;;
37641;SDS011;23486;51.956;5.888;2022-12-18T12:00:21;20.42;;;9.77;;
37641;SDS011;23486;51.956;5.888;2022-12-18T12:11:46;20.33;;;9.63;;
37641;SDS011;23486;51.956;5.888;2022-12-18T12:17:37;18.00;;;9.20;;
37641;SDS011;23486;51.956;5.888;2022-12-18T12:23:45;16.67;;;8.98;;
37641;SDS011;23486;51.956;5.888;2022-12-18T12:25:59;18.17;;;8.65;;
37641;SDS011;23486;51.956;5.888;2022-12-18T12:28:48;18.60;;;9.80;;
37641;SDS011;23486;51.956;5.888;2022-12-18T12:34:01;17.88;;;8.35;;
37641;SDS011;23486;51.956;5.888;2022-12-18T12:39:37;18.35;;;8.30;;
37641;SDS011;23486;51.956;5.888;2022-12-18T12:42:06;15.30;;;8.07;;
37641;SDS011;23486;51.956;5.888;2022-12-18T12:45:38;17.50;;;9.07;;
37641;SDS011;23486;51.956;5.888;2022-12-18T12:48:17;18.38;;;8.77;;
37641;SDS011;23486;51.956;5.888;2022-12-18T12:50:52;15.27;;;8.20;;
37641;SDS011;23486;51.956;5.888;2022-12-18T12:53:25;16.65;;;9.90;;
37641;SDS011;23486;51.956;5.888;2022-12-18T12:55:54;17.60;;;9.35;;
37641;SDS011;23486;51.956;5.888;2022-12-18T13:01:01;21.23;;;9.88;;
37641;SDS011;23486;51.956;5.888;2022-12-18T13:06:18;17.40;;;10.07;;
37641;SDS011;23486;51.956;5.888;2022-12-18T13:08:56;18.92;;;10.25;;
37641;SDS011;23486;51.956;5.888;2022-12-18T13:14:45;21.55;;;9.15;;
37641;SDS011;23486;51.956;5.888;2022-12-18T13:17:22;19.90;;;9.63;;
37641;SDS011;23486;51.956;5.888;2022-12-18T13:22:36;18.13;;;9.88;;
37641;SDS011;23486;51.956;5.888;2022-12-18T13:25:26;19.13;;;9.20;;
37641;SDS011;23486;51.956;5.888;2022-12-18T13:28:06;16.17;;;8.65;;
37641;SDS011;23486;51.956;5.888;2022-12-18T13:43:43;23.80;;;9.85;;
37641;SDS011;23486;51.956;5.888;2022-12-18T13:51:28;15.88;;;9.10;;
37641;SDS011;23486;51.956;5.888;2022-12-18T13:56:33;15.30;;;7.68;;
37641;SDS011;23486;51.956;5.888;2022-12-18T14:01:33;19.48;;;9.32;;
37641;SDS011;23486;51.956;5.888;2022-12-18T14:04:11;16.85;;;9.27;;
37641;SDS011;23486;51.956;5.888;2022-12-18T14:06:44;16.95;;;8.75;;
37641;SDS011;23486;51.956;5.888;2022-12-18T14:09:27;18.77;;;9.77;;
37641;SDS011;23486;51.956;5.888;2022-12-18T14:11:56;21.38;;;10.07;;
37641;SDS011;23486;51.956;5.888;2022-12-18T14:14:42;19.85;;;9.43;;
37641;SDS011;23486;51.956;5.888;2022-12-18T14:17:10;22.00;;;10.15;;
37641;SDS011;23486;51.956;5.888;2022-12-18T14:19:36;24.50;;;11.68;;
37641;SDS011;23486;51.956;5.888;2022-12-18T14:22:09;21.02;;;11.02;;
37641;SDS011;23486;51.956;5.888;2022-12-18T14:24:41;23.42;;;11.25;;
37641;SDS011;23486;51.956;5.888;2022-12-18T14:27:19;21.80;;;10.18;;
37641;SDS011;23486;51.956;5.888;2022-12-18T14:29:47;22.35;;;10.50;;
37641;SDS011;23486;51.956;5.888;2022-12-18T14:32:17;20.38;;;10.77;;
37641;SDS011;23486;51.956;5.888;2022-12-18T14:34:45;22.45;;;11.45;;
37641;SDS011;23486;51.956;5.888;2022-12-18T14:37:16;18.23;;;11.02;;
37641;SDS011;23486;51.956;5.888;2022-12-18T14:39:56;22.25;;;10.38;;
37641;SDS011;23486;51.956;5.888;2022-12-18T14:42:24;19.58;;;10.57;;
37641;SDS011;23486;51.956;5.888;2022-12-18T14:45:18;18.55;;;10.35;;
37641;SDS011;23486;51.956;5.888;2022-12-18T14:47:57;21.30;;;11.05;;
37641;SDS011;23486;51.956;5.888;2022-12-18T14:50:23;22.70;;;10.65;;
37641;SDS011;23486;51.956;5.888;2022-12-18T14:52:49;21.20;;;11.20;;
37641;SDS011;23486;51.956;5.888;2022-12-18T14:55:16;18.90;;;9.55;;
37641;SDS011;23486;51.956;5.888;2022-12-18T14:57:43;21.02;;;10.88;;
37641;SDS011;23486;51.956;5.888;2022-12-18T15:00:16;20.05;;;9.90;;
37641;SDS011;23486;51.956;5.888;2022-12-18T15:02:45;19.23;;;9.95;;
37641;SDS011;23486;51.956;5.888;2022-12-18T15:07:45;19.23;;;9.88;;
37641;SDS011;23486;51.956;5.888;2022-12-18T15:10:17;18.23;;;9.77;;
37641;SDS011;23486;51.956;5.888;2022-12-18T15:18:10;22.90;;;11.57;;
37641;SDS011;23486;51.956;5.888;2022-12-18T15:20:41;20.33;;;10.98;;
37641;SDS011;23486;51.956;5.888;2022-12-18T15:25:54;21.42;;;11.82;;
37641;SDS011;23486;51.956;5.888;2022-12-18T15:28:24;21.52;;;11.32;;
37641;SDS011;23486;51.956;5.888;2022-12-18T15:33:35;22.65;;;11.80;;
37641;SDS011;23486;51.956;5.888;2022-12-18T15:36:08;22.10;;;10.85;;
37641;SDS011;23486;51.956;5.888;2022-12-18T15:38:36;21.73;;;10.80;;
37641;SDS011;23486;51.956;5.888;2022-12-18T15:41:02;21.20;;;11.55;;
37641;SDS011;23486;51.956;5.888;2022-12-18T15:43:28;24.35;;;11.80;;
37641;SDS011;23486;51.956;5.888;2022-12-18T15:46:11;21.00;;;10.65;;
37641;SDS011;23486;51.956;5.888;2022-12-18T15:48:40;26.23;;;12.25;;
37641;SDS011;23486;51.956;5.888;2022-12-18T15:51:18;21.85;;;11.25;;
37641;SDS011;23486;51.956;5.888;2022-12-18T15:53:50;26.05;;;13.77;;
37641;SDS011;23486;51.956;5.888;2022-12-18T15:56:19;23.98;;;12.02;;
37641;SDS011;23486;51.956;5.888;2022-12-18T15:59:04;20.42;;;10.30;;
37641;SDS011;23486;51.956;5.888;2022-12-18T16:01:38;20.55;;;11.43;;
37641;SDS011;23486;51.956;5.888;2022-12-18T16:04:05;24.23;;;12.50;;
37641;SDS011;23486;51.956;5.888;2022-12-18T16:06:30;26.27;;;13.18;;
37641;SDS011;23486;51.956;5.888;2022-12-18T16:08:56;25.98;;;13.43;;
37641;SDS011;23486;51.956;5.888;2022-12-18T16:11:23;24.50;;;14.07;;
37641;SDS011;23486;51.956;5.888;2022-12-18T16:16:50;24.70;;;13.00;;
37641;SDS011;23486;51.956;5.888;2022-12-18T16:19:17;28.75;;;13.63;;
37641;SDS011;23486;51.956;5.888;2022-12-18T16:21:43;25.60;;;13.07;;
37641;SDS011;23486;51.956;5.888;2022-12-18T16:24:17;22.08;;;12.23;;
37641;SDS011;23486;51.956;5.888;2022-12-18T16:26:50;23.85;;;11.25;;
37641;SDS011;23486;51.956;5.888;2022-12-18T16:29:17;24.95;;;13.10;;
37641;SDS011;23486;51.956;5.888;2022-12-18T16:31:44;28.08;;;14.38;;
37641;SDS011;23486;51.956;5.888;2022-12-18T16:36:47;21.80;;;12.30;;
37641;SDS011;23486;51.956;5.888;2022-12-18T16:39:14;22.60;;;12.70;;
37641;SDS011;23486;51.956;5.888;2022-12-18T16:41:39;29.13;;;15.13;;
37641;SDS011;23486;51.956;5.888;2022-12-18T16:44:05;24.63;;;12.57;;
37641;SDS011;23486;51.956;5.888;2022-12-18T16:46:30;27.52;;;14.65;;
37641;SDS011;23486;51.956;5.888;2022-12-18T16:48:57;28.52;;;14.05;;
37641;SDS011;23486;51.956;5.888;2022-12-18T16:51:23;26.90;;;13.73;;
37641;SDS011;23486;51.956;5.888;2022-12-18T16:54:01;30.02;;;15.98;;
37641;SDS011;23486;51.956;5.888;2022-12-18T16:56:27;25.75;;;15.07;;
37641;SDS011;23486;51.956;5.888;2022-12-18T16:58:54;29.77;;;15.00;;